sensor_id;sensor_type;location;lat;lon;timestamp;temperature;humidity
16437;DHT22;8328;52.206;21.006;2022-12-18T00:03:28;-3.40;99.90
16437;DHT22;8328;52.206;21.006;2022-12-18T00:08:20;-3.50;99.90
16437;DHT22;8328;52.206;21.006;2022-12-18T00:13:12;-3.40;99.90
16437;DHT22;8328;52.206;21.006;2022-12-18T00:15:39;-3.50;99.90
16437;DHT22;8328;52.206;21.006;2022-12-18T00:18:05;-3.30;99.90
16437;DHT22;8328;52.206;21.006;2022-12-18T00:20:32;-3.30;99.90
16437;DHT22;8328;52.206;21.006;2022-12-18T00:23:00;-3.30;99.90
16437;DHT22;8328;52.206;21.006;2022-12-18T00:30:19;-3.10;99.90
16437;DHT22;8328;52.206;21.006;2022-12-18T00:32:44;-3.00;99.90
16437;DHT22;8328;52.206;21.006;2022-12-18T00:37:36;-2.90;99.90
16437;DHT22;8328;52.206;21.006;2022-12-18T00:40:03;-2.90;99.90
16437;DHT22;8328;52.206;21.006;2022-12-18T00:42:29;-3.00;99.90
16437;DHT22;8328;52.206;21.006;2022-12-18T00:45:13;-2.90;99.90
16437;DHT22;8328;52.206;21.006;2022-12-18T00:47:39;-2.90;99.90
16437;DHT22;8328;52.206;21.006;2022-12-18T00:50:06;-2.90;99.90
16437;DHT22;8328;52.206;21.006;2022-12-18T00:52:32;-3.00;99.90
16437;DHT22;8328;52.206;21.006;2022-12-18T00:54:58;-2.90;99.90
16437;DHT22;8328;52.206;21.006;2022-12-18T00:57:24;-2.80;99.90
16437;DHT22;8328;52.206;21.006;2022-12-18T00:59:49;-2.90;99.90
16437;DHT22;8328;52.206;21.006;2022-12-18T01:02:15;-2.80;99.90
16437;DHT22;8328;52.206;21.006;2022-12-18T01:04:41;-2.70;99.90
16437;DHT22;8328;52.206;21.006;2022-12-18T01:07:07;-2.70;99.90
16437;DHT22;8328;52.206;21.006;2022-12-18T01:09:33;-2.70;99.90
16437;DHT22;8328;52.206;21.006;2022-12-18T01:12:00;-2.80;99.90
16437;DHT22;8328;52.206;21.006;2022-12-18T01:16:52;-2.80;99.90
16437;DHT22;8328;52.206;21.006;2022-12-18T01:19:18;-2.70;99.90
16437;DHT22;8328;52.206;21.006;2022-12-18T01:24:11;-2.90;99.90
16437;DHT22;8328;52.206;21.006;2022-12-18T01:26:37;-3.00;99.90
16437;DHT22;8328;52.206;21.006;2022-12-18T01:31:32;-1.60;99.90
16437;DHT22;8328;52.206;21.006;2022-12-18T01:34:00;-2.90;99.90
16437;DHT22;8328;52.206;21.006;2022-12-18T01:36:35;-2.80;99.90
16437;DHT22;8328;52.206;21.006;2022-12-18T01:39:04;-2.80;99.90
16437;DHT22;8328;52.206;21.006;2022-12-18T01:41:32;-2.80;99.90
16437;DHT22;8328;52.206;21.006;2022-12-18T01:49:46;-2.80;99.90
16437;DHT22;8328;52.206;21.006;2022-12-18T01:52:13;-2.90;99.90
16437;DHT22;8328;52.206;21.006;2022-12-18T01:54:39;-2.80;99.90
16437;DHT22;8328;52.206;21.006;2022-12-18T01:57:08;-2.80;99.90
16437;DHT22;8328;52.206;21.006;2022-12-18T01:59:35;-2.80;99.90
16437;DHT22;8328;52.206;21.006;2022-12-18T02:02:03;-2.90;99.90
16437;DHT22;8328;52.206;21.006;2022-12-18T02:04:29;-2.90;99.90
16437;DHT22;8328;52.206;21.006;2022-12-18T02:10:31;-2.70;99.90
16437;DHT22;8328;52.206;21.006;2022-12-18T02:12:47;-2.90;99.90
16437;DHT22;8328;52.206;21.006;2022-12-18T02:15:26;-3.00;99.90
16437;DHT22;8328;52.206;21.006;2022-12-18T02:18:05;-2.80;99.90
16437;DHT22;8328;52.206;21.006;2022-12-18T02:20:45;-2.80;99.90
16437;DHT22;8328;52.206;21.006;2022-12-18T02:31:27;-2.80;99.90
16437;DHT22;8328;52.206;21.006;2022-12-18T02:34:00;-2.80;99.90
16437;DHT22;8328;52.206;21.006;2022-12-18T02:36:32;-2.70;99.90
16437;DHT22;8328;52.206;21.006;2022-12-18T02:39:02;-2.60;99.90
16437;DHT22;8328;52.206;21.006;2022-12-18T02:41:30;-2.70;99.90
16437;DHT22;8328;52.206;21.006;2022-12-18T02:43:59;-2.80;99.90
16437;DHT22;8328;52.206;21.006;2022-12-18T02:49:38;-2.80;99.90
16437;DHT22;8328;52.206;21.006;2022-12-18T02:52:12;-2.70;99.90
16437;DHT22;8328;52.206;21.006;2022-12-18T02:55:22;-2.60;99.90
16437;DHT22;8328;52.206;21.006;2022-12-18T02:57:56;-2.70;99.90
16437;DHT22;8328;52.206;21.006;2022-12-18T03:00:45;-2.70;99.90
16437;DHT22;8328;52.206;21.006;2022-12-18T03:03:46;-2.60;99.90
16437;DHT22;8328;52.206;21.006;2022-12-18T03:06:40;-2.60;99.90
16437;DHT22;8328;52.206;21.006;2022-12-18T03:09:15;-2.40;99.90
16437;DHT22;8328;52.206;21.006;2022-12-18T03:11:44;-2.50;99.90
16437;DHT22;8328;52.206;21.006;2022-12-18T03:14:32;-2.60;99.90
16437;DHT22;8328;52.206;21.006;2022-12-18T03:17:05;-2.70;99.90
16437;DHT22;8328;52.206;21.006;2022-12-18T03:19:35;-2.70;99.90
16437;DHT22;8328;52.206;21.006;2022-12-18T03:22:03;-2.70;99.90
16437;DHT22;8328;52.206;21.006;2022-12-18T03:24:31;-2.80;99.90
16437;DHT22;8328;52.206;21.006;2022-12-18T03:27:01;-2.80;99.90
16437;DHT22;8328;52.206;21.006;2022-12-18T03:29:40;-2.90;99.90
16437;DHT22;8328;52.206;21.006;2022-12-18T03:32:11;-3.00;99.90
16437;DHT22;8328;52.206;21.006;2022-12-18T03:34:40;-3.00;99.90
16437;DHT22;8328;52.206;21.006;2022-12-18T03:39:34;-3.10;99.90
16437;DHT22;8328;52.206;21.006;2022-12-18T03:42:17;-3.10;99.90
16437;DHT22;8328;52.206;21.006;2022-12-18T03:45:09;-3.00;99.90
16437;DHT22;8328;52.206;21.006;2022-12-18T03:55:46;-2.70;99.90
16437;DHT22;8328;52.206;21.006;2022-12-18T03:58:16;-2.90;99.90
16437;DHT22;8328;52.206;21.006;2022-12-18T04:00:44;-2.90;99.90
16437;DHT22;8328;52.206;21.006;2022-12-18T04:03:12;-2.80;99.90
16437;DHT22;8328;52.206;21.006;2022-12-18T04:05:40;-2.90;99.90
16437;DHT22;8328;52.206;21.006;2022-12-18T04:22:45;-2.70;99.90
16437;DHT22;8328;52.206;21.006;2022-12-18T04:25:11;-2.80;99.90
16437;DHT22;8328;52.206;21.006;2022-12-18T04:30:03;-3.00;99.90
16437;DHT22;8328;52.206;21.006;2022-12-18T04:37:22;-3.40;99.90
16437;DHT22;8328;52.206;21.006;2022-12-18T04:51:59;-3.90;99.90
16437;DHT22;8328;52.206;21.006;2022-12-18T04:54:25;-3.90;99.90
16437;DHT22;8328;52.206;21.006;2022-12-18T04:56:53;-3.90;99.90
16437;DHT22;8328;52.206;21.006;2022-12-18T05:01:48;-4.10;99.90
16437;DHT22;8328;52.206;21.006;2022-12-18T05:06:43;-4.10;99.90
16437;DHT22;8328;52.206;21.006;2022-12-18T05:09:09;-4.20;99.90
16437;DHT22;8328;52.206;21.006;2022-12-18T05:16:30;-4.10;99.90
16437;DHT22;8328;52.206;21.006;2022-12-18T05:21:23;-4.10;99.90
16437;DHT22;8328;52.206;21.006;2022-12-18T05:23:55;-0.40;99.90
16437;DHT22;8328;52.206;21.006;2022-12-18T05:31:17;-4.10;99.90
16437;DHT22;8328;52.206;21.006;2022-12-18T05:38:39;-4.20;99.90
16437;DHT22;8328;52.206;21.006;2022-12-18T05:41:06;-4.10;99.90
16437;DHT22;8328;52.206;21.006;2022-12-18T05:43:35;-4.10;99.90
16437;DHT22;8328;52.206;21.006;2022-12-18T05:46:07;-4.20;99.90
16437;DHT22;8328;52.206;21.006;2022-12-18T05:48:33;-4.30;99.90
16437;DHT22;8328;52.206;21.006;2022-12-18T05:51:08;-4.30;99.90
16437;DHT22;8328;52.206;21.006;2022-12-18T05:53:38;-4.30;99.90
16437;DHT22;8328;52.206;21.006;2022-12-18T05:56:07;-4.20;99.90
16437;DHT22;8328;52.206;21.006;2022-12-18T05:58:36;-4.10;99.90
16437;DHT22;8328;52.206;21.006;2022-12-18T06:01:18;-3.90;99.90
16437;DHT22;8328;52.206;21.006;2022-12-18T06:03:48;-3.80;99.90
16437;DHT22;8328;52.206;21.006;2022-12-18T06:06:21;-3.70;99.90
16437;DHT22;8328;52.206;21.006;2022-12-18T06:08:48;-3.70;99.90
16437;DHT22;8328;52.206;21.006;2022-12-18T06:11:18;-3.60;99.90
16437;DHT22;8328;52.206;21.006;2022-12-18T06:21:03;-3.50;99.90
16437;DHT22;8328;52.206;21.006;2022-12-18T06:23:29;-3.60;99.90
16437;DHT22;8328;52.206;21.006;2022-12-18T06:28:21;-3.70;99.90
16437;DHT22;8328;52.206;21.006;2022-12-18T06:30:47;-3.70;99.90
16437;DHT22;8328;52.206;21.006;2022-12-18T06:33:15;-3.70;99.90
16437;DHT22;8328;52.206;21.006;2022-12-18T06:38:12;-3.80;99.90
16437;DHT22;8328;52.206;21.006;2022-12-18T06:43:05;-3.70;99.90
16437;DHT22;8328;52.206;21.006;2022-12-18T06:50:41;-3.60;99.90
16437;DHT22;8328;52.206;21.006;2022-12-18T06:53:10;-5.40;99.90
16437;DHT22;8328;52.206;21.006;2022-12-18T06:58:05;-3.00;99.90
16437;DHT22;8328;52.206;21.006;2022-12-18T07:00:34;-2.80;99.90
16437;DHT22;8328;52.206;21.006;2022-12-18T07:05:27;-2.80;99.90
16437;DHT22;8328;52.206;21.006;2022-12-18T07:07:59;-2.90;99.90
16437;DHT22;8328;52.206;21.006;2022-12-18T07:17:43;-2.60;99.90
16437;DHT22;8328;52.206;21.006;2022-12-18T07:27:30;-2.00;99.90
16437;DHT22;8328;52.206;21.006;2022-12-18T07:30:06;-2.20;99.90
16437;DHT22;8328;52.206;21.006;2022-12-18T07:35:05;-2.30;99.90
16437;DHT22;8328;52.206;21.006;2022-12-18T07:39:58;-2.40;99.90
16437;DHT22;8328;52.206;21.006;2022-12-18T07:45:00;-2.20;99.90
16437;DHT22;8328;52.206;21.006;2022-12-18T07:47:29;-2.20;99.90
16437;DHT22;8328;52.206;21.006;2022-12-18T07:49:55;-2.10;99.90
16437;DHT22;8328;52.206;21.006;2022-12-18T07:52:21;-2.20;99.90
16437;DHT22;8328;52.206;21.006;2022-12-18T07:54:55;-2.20;99.90
16437;DHT22;8328;52.206;21.006;2022-12-18T07:57:24;-1.80;99.90
16437;DHT22;8328;52.206;21.006;2022-12-18T07:59:50;-2.40;99.90
16437;DHT22;8328;52.206;21.006;2022-12-18T08:07:09;-2.30;99.90
16437;DHT22;8328;52.206;21.006;2022-12-18T08:12:01;-2.40;99.90
16437;DHT22;8328;52.206;21.006;2022-12-18T08:16:54;-2.40;99.90
16437;DHT22;8328;52.206;21.006;2022-12-18T08:19:19;-2.30;99.90
16437;DHT22;8328;52.206;21.006;2022-12-18T08:21:58;-2.40;99.90
16437;DHT22;8328;52.206;21.006;2022-12-18T08:24:24;-2.30;99.90
16437;DHT22;8328;52.206;21.006;2022-12-18T08:29:16;-2.10;99.90
16437;DHT22;8328;52.206;21.006;2022-12-18T08:31:50;-2.00;99.90
16437;DHT22;8328;52.206;21.006;2022-12-18T08:34:23;-2.20;99.90
16437;DHT22;8328;52.206;21.006;2022-12-18T08:36:55;-2.20;99.90
16437;DHT22;8328;52.206;21.006;2022-12-18T08:41:47;-2.30;99.90
16437;DHT22;8328;52.206;21.006;2022-12-18T08:47:06;-2.30;99.90
16437;DHT22;8328;52.206;21.006;2022-12-18T08:49:36;-2.20;99.90
16437;DHT22;8328;52.206;21.006;2022-12-18T08:52:04;-2.00;99.90
16437;DHT22;8328;52.206;21.006;2022-12-18T08:59:23;-1.60;99.90
16437;DHT22;8328;52.206;21.006;2022-12-18T09:01:50;-1.50;99.90
16437;DHT22;8328;52.206;21.006;2022-12-18T09:04:16;-1.60;99.90
16437;DHT22;8328;52.206;21.006;2022-12-18T09:06:42;-1.50;99.90
16437;DHT22;8328;52.206;21.006;2022-12-18T09:09:11;-1.50;99.90
16437;DHT22;8328;52.206;21.006;2022-12-18T09:11:38;-1.50;99.90
16437;DHT22;8328;52.206;21.006;2022-12-18T09:16:31;-1.20;99.90
16437;DHT22;8328;52.206;21.006;2022-12-18T09:21:30;-1.50;99.90
16437;DHT22;8328;52.206;21.006;2022-12-18T09:23:56;-1.40;99.90
16437;DHT22;8328;52.206;21.006;2022-12-18T09:26:23;-1.10;99.90
16437;DHT22;8328;52.206;21.006;2022-12-18T09:31:18;-1.20;99.90
16437;DHT22;8328;52.206;21.006;2022-12-18T09:36:13;-1.30;99.90
16437;DHT22;8328;52.206;21.006;2022-12-18T09:38:42;-1.00;99.90
16437;DHT22;8328;52.206;21.006;2022-12-18T09:41:26;-0.60;99.90
16437;DHT22;8328;52.206;21.006;2022-12-18T09:46:45;-0.30;99.90
16437;DHT22;8328;52.206;21.006;2022-12-18T09:49:18;-0.30;99.90
16437;DHT22;8328;52.206;21.006;2022-12-18T09:51:52;-0.50;99.90
16437;DHT22;8328;52.206;21.006;2022-12-18T09:54:28;0.20;99.90
16437;DHT22;8328;52.206;21.006;2022-12-18T09:57:01;-0.60;99.90
16437;DHT22;8328;52.206;21.006;2022-12-18T09:59:35;-0.60;99.90
16437;DHT22;8328;52.206;21.006;2022-12-18T10:02:38;-0.70;99.90
16437;DHT22;8328;52.206;21.006;2022-12-18T10:08:11;-0.80;99.90
16437;DHT22;8328;52.206;21.006;2022-12-18T10:10:53;-0.70;99.90
16437;DHT22;8328;52.206;21.006;2022-12-18T10:13:44;-0.50;99.90
16437;DHT22;8328;52.206;21.006;2022-12-18T10:16:16;-0.60;99.90
16437;DHT22;8328;52.206;21.006;2022-12-18T10:24:39;-0.90;99.90
16437;DHT22;8328;52.206;21.006;2022-12-18T10:27:23;-1.00;99.90
16437;DHT22;8328;52.206;21.006;2022-12-18T10:29:50;-1.50;99.90
16437;DHT22;8328;52.206;21.006;2022-12-18T10:32:27;-1.20;99.90
16437;DHT22;8328;52.206;21.006;2022-12-18T10:35:07;-1.10;99.90
16437;DHT22;8328;52.206;21.006;2022-12-18T10:37:34;-1.20;99.90
16437;DHT22;8328;52.206;21.006;2022-12-18T10:40:15;-2.20;99.90
16437;DHT22;8328;52.206;21.006;2022-12-18T10:42:44;-1.10;99.90
16437;DHT22;8328;52.206;21.006;2022-12-18T10:45:16;-1.20;99.90
16437;DHT22;8328;52.206;21.006;2022-12-18T10:47:47;-1.10;99.90
16437;DHT22;8328;52.206;21.006;2022-12-18T10:50:34;-1.10;99.90
16437;DHT22;8328;52.206;21.006;2022-12-18T10:53:02;-1.20;99.90
16437;DHT22;8328;52.206;21.006;2022-12-18T10:55:34;-1.30;99.90
16437;DHT22;8328;52.206;21.006;2022-12-18T10:58:35;-1.30;99.90
16437;DHT22;8328;52.206;21.006;2022-12-18T11:01:10;-1.20;99.90
16437;DHT22;8328;52.206;21.006;2022-12-18T11:03:39;-1.00;99.90
16437;DHT22;8328;52.206;21.006;2022-12-18T11:06:15;-0.80;99.90
16437;DHT22;8328;52.206;21.006;2022-12-18T11:08:44;-0.50;99.90
16437;DHT22;8328;52.206;21.006;2022-12-18T11:11:23;0.00;99.90
16437;DHT22;8328;52.206;21.006;2022-12-18T11:16:51;0.90;99.90
16437;DHT22;8328;52.206;21.006;2022-12-18T11:21:59;1.40;99.90
16437;DHT22;8328;52.206;21.006;2022-12-18T11:24:34;0.50;99.90
16437;DHT22;8328;52.206;21.006;2022-12-18T11:27:03;1.40;99.90
16437;DHT22;8328;52.206;21.006;2022-12-18T11:29:35;1.10;99.90
16437;DHT22;8328;52.206;21.006;2022-12-18T11:34:53;0.50;99.90
16437;DHT22;8328;52.206;21.006;2022-12-18T11:37:21;0.20;99.90
16437;DHT22;8328;52.206;21.006;2022-12-18T11:39:56;0.10;99.90
16437;DHT22;8328;52.206;21.006;2022-12-18T11:50:24;-0.10;99.90
16437;DHT22;8328;52.206;21.006;2022-12-18T11:52:51;0.00;99.90
16437;DHT22;8328;52.206;21.006;2022-12-18T12:09:27;0.20;99.90
16437;DHT22;8328;52.206;21.006;2022-12-18T12:20:18;0.60;99.90
16437;DHT22;8328;52.206;21.006;2022-12-18T12:22:56;0.40;99.90
16437;DHT22;8328;52.206;21.006;2022-12-18T12:39:36;0.70;99.90
16437;DHT22;8328;52.206;21.006;2022-12-18T12:42:13;0.70;99.90
16437;DHT22;8328;52.206;21.006;2022-12-18T12:45:01;0.80;99.90
16437;DHT22;8328;52.206;21.006;2022-12-18T12:47:33;0.70;99.90
16437;DHT22;8328;52.206;21.006;2022-12-18T12:50:05;0.80;99.90
16437;DHT22;8328;52.206;21.006;2022-12-18T12:52:48;0.70;99.90
16437;DHT22;8328;52.206;21.006;2022-12-18T12:55:24;0.60;99.90
16437;DHT22;8328;52.206;21.006;2022-12-18T12:58:11;0.80;99.90
16437;DHT22;8328;52.206;21.006;2022-12-18T13:00:58;0.80;99.90
16437;DHT22;8328;52.206;21.006;2022-12-18T13:06:09;0.80;99.90
16437;DHT22;8328;52.206;21.006;2022-12-18T13:09:00;0.70;99.90
16437;DHT22;8328;52.206;21.006;2022-12-18T13:14:28;0.50;99.90
16437;DHT22;8328;52.206;21.006;2022-12-18T13:17:28;0.60;99.90
16437;DHT22;8328;52.206;21.006;2022-12-18T13:20:09;0.40;99.90
16437;DHT22;8328;52.206;21.006;2022-12-18T13:22:39;0.30;99.90
16437;DHT22;8328;52.206;21.006;2022-12-18T13:25:39;0.10;99.90
16437;DHT22;8328;52.206;21.006;2022-12-18T13:28:13;0.10;99.90
16437;DHT22;8328;52.206;21.006;2022-12-18T13:30:54;0.10;99.90
16437;DHT22;8328;52.206;21.006;2022-12-18T13:38:36;-0.30;99.90
16437;DHT22;8328;52.206;21.006;2022-12-18T13:43:55;-0.50;99.90
16437;DHT22;8328;52.206;21.006;2022-12-18T13:46:42;-0.60;99.90
16437;DHT22;8328;52.206;21.006;2022-12-18T13:51:43;-0.90;99.90
16437;DHT22;8328;52.206;21.006;2022-12-18T13:54:28;-1.10;99.90
16437;DHT22;8328;52.206;21.006;2022-12-18T13:56:56;-1.30;99.90
16437;DHT22;8328;52.206;21.006;2022-12-18T13:59:24;-1.40;99.90
16437;DHT22;8328;52.206;21.006;2022-12-18T14:01:56;-1.40;99.90
16437;DHT22;8328;52.206;21.006;2022-12-18T14:04:32;-1.30;99.90
16437;DHT22;8328;52.206;21.006;2022-12-18T14:07:02;-1.30;99.90
16437;DHT22;8328;52.206;21.006;2022-12-18T14:09:31;-1.20;99.90
16437;DHT22;8328;52.206;21.006;2022-12-18T14:11:59;-1.20;99.90
16437;DHT22;8328;52.206;21.006;2022-12-18T14:14:49;-1.20;99.90
16437;DHT22;8328;52.206;21.006;2022-12-18T14:17:17;-1.10;99.90
16437;DHT22;8328;52.206;21.006;2022-12-18T14:19:48;-1.20;99.90
16437;DHT22;8328;52.206;21.006;2022-12-18T14:22:20;-1.30;99.90
16437;DHT22;8328;52.206;21.006;2022-12-18T14:24:47;-1.30;99.90
16437;DHT22;8328;52.206;21.006;2022-12-18T14:27:21;-1.20;99.90
16437;DHT22;8328;52.206;21.006;2022-12-18T14:29:47;-1.10;99.90
16437;DHT22;8328;52.206;21.006;2022-12-18T14:32:18;-1.10;99.90
16437;DHT22;8328;52.206;21.006;2022-12-18T14:37:17;-1.10;99.90
16437;DHT22;8328;52.206;21.006;2022-12-18T14:40:00;-1.00;99.90
16437;DHT22;8328;52.206;21.006;2022-12-18T14:42:27;-0.90;99.90
16437;DHT22;8328;52.206;21.006;2022-12-18T14:47:56;-0.90;99.90
16437;DHT22;8328;52.206;21.006;2022-12-18T14:50:22;-1.00;99.90
16437;DHT22;8328;52.206;21.006;2022-12-18T14:52:48;-0.90;99.90
16437;DHT22;8328;52.206;21.006;2022-12-18T14:55:18;-0.90;99.90
16437;DHT22;8328;52.206;21.006;2022-12-18T14:57:45;-0.90;99.90
16437;DHT22;8328;52.206;21.006;2022-12-18T15:00:20;-1.10;99.90
16437;DHT22;8328;52.206;21.006;2022-12-18T15:02:56;-1.10;99.90
16437;DHT22;8328;52.206;21.006;2022-12-18T15:05:29;-1.10;99.90
16437;DHT22;8328;52.206;21.006;2022-12-18T15:07:58;-1.10;99.90
16437;DHT22;8328;52.206;21.006;2022-12-18T15:10:32;-1.00;99.90
16437;DHT22;8328;52.206;21.006;2022-12-18T15:25:56;-2.00;99.90
16437;DHT22;8328;52.206;21.006;2022-12-18T15:28:23;-2.00;99.90
16437;DHT22;8328;52.206;21.006;2022-12-18T15:31:00;-1.90;99.90
16437;DHT22;8328;52.206;21.006;2022-12-18T15:33:29;-1.70;99.90
16437;DHT22;8328;52.206;21.006;2022-12-18T15:35:57;-1.60;99.90
16437;DHT22;8328;52.206;21.006;2022-12-18T15:38:23;-2.60;99.90
16437;DHT22;8328;52.206;21.006;2022-12-18T15:40:49;-1.50;99.90
16437;DHT22;8328;52.206;21.006;2022-12-18T15:43:21;-1.40;99.90
16437;DHT22;8328;52.206;21.006;2022-12-18T15:46:13;-1.30;99.90
16437;DHT22;8328;52.206;21.006;2022-12-18T15:48:41;-1.20;99.90
16437;DHT22;8328;52.206;21.006;2022-12-18T15:51:20;-1.20;99.90
16437;DHT22;8328;52.206;21.006;2022-12-18T15:53:53;-1.10;99.90
16437;DHT22;8328;52.206;21.006;2022-12-18T15:56:20;-1.10;99.90
16437;DHT22;8328;52.206;21.006;2022-12-18T15:59:13;-1.10;99.90
16437;DHT22;8328;52.206;21.006;2022-12-18T16:01:39;-0.40;99.90
16437;DHT22;8328;52.206;21.006;2022-12-18T16:04:10;-1.00;99.90
16437;DHT22;8328;52.206;21.006;2022-12-18T16:06:37;-1.00;99.90
16437;DHT22;8328;52.206;21.006;2022-12-18T16:09:02;-1.00;99.90
16437;DHT22;8328;52.206;21.006;2022-12-18T16:11:30;-1.00;99.90
16437;DHT22;8328;52.206;21.006;2022-12-18T16:16:52;-1.00;99.90
16437;DHT22;8328;52.206;21.006;2022-12-18T16:19:18;-1.00;99.90
16437;DHT22;8328;52.206;21.006;2022-12-18T16:21:45;-1.00;99.90
16437;DHT22;8328;52.206;21.006;2022-12-18T16:24:19;-1.00;99.90
16437;DHT22;8328;52.206;21.006;2022-12-18T16:26:45;-1.00;99.90
16437;DHT22;8328;52.206;21.006;2022-12-18T16:29:11;-1.20;99.90
16437;DHT22;8328;52.206;21.006;2022-12-18T16:31:37;-1.40;99.90
16437;DHT22;8328;52.206;21.006;2022-12-18T16:34:24;-1.70;99.90
16437;DHT22;8328;52.206;21.006;2022-12-18T16:36:52;-1.60;99.90
16437;DHT22;8328;52.206;21.006;2022-12-18T16:39:19;-1.50;99.90
16437;DHT22;8328;52.206;21.006;2022-12-18T16:41:49;-1.50;99.90
16437;DHT22;8328;52.206;21.006;2022-12-18T16:44:15;-1.50;99.90
16437;DHT22;8328;52.206;21.006;2022-12-18T16:46:41;-1.40;99.90
16437;DHT22;8328;52.206;21.006;2022-12-18T16:49:12;-1.40;99.90
16437;DHT22;8328;52.206;21.006;2022-12-18T16:51:38;-1.30;99.90
16437;DHT22;8328;52.206;21.006;2022-12-18T16:54:03;-1.30;99.90
16437;DHT22;8328;52.206;21.006;2022-12-18T16:56:30;-1.30;99.90
16437;DHT22;8328;52.206;21.006;2022-12-18T16:58:57;-1.30;99.90
16437;DHT22;8328;52.206;21.006;2022-12-18T17:01:24;-2.20;99.90
16437;DHT22;8328;52.206;21.006;2022-12-18T17:03:52;-1.30;99.90
16437;DHT22;8328;52.206;21.006;2022-12-18T17:06:20;-1.40;99.90
16437;DHT22;8328;52.206;21.006;2022-12-18T17:08:46;-1.40;99.90
16437;DHT22;8328;52.206;21.006;2022-12-18T17:11:12;-1.40;99.90
16437;DHT22;8328;52.206;21.006;2022-12-18T17:13:38;-1.30;99.90
16437;DHT22;8328;52.206;21.006;2022-12-18T17:16:04;-1.30;99.90
16437;DHT22;8328;52.206;21.006;2022-12-18T17:18:32;-1.30;99.90
16437;DHT22;8328;52.206;21.006;2022-12-18T17:21:01;-1.20;99.90
16437;DHT22;8328;52.206;21.006;2022-12-18T17:23:28;-1.20;99.90
16437;DHT22;8328;52.206;21.006;2022-12-18T17:25:58;-1.20;99.90
16437;DHT22;8328;52.206;21.006;2022-12-18T17:28:25;-1.20;99.90
16437;DHT22;8328;52.206;21.006;2022-12-18T17:30:53;-1.20;99.90
16437;DHT22;8328;52.206;21.006;2022-12-18T17:33:19;-1.20;99.90
16437;DHT22;8328;52.206;21.006;2022-12-18T17:35:44;-1.30;99.90
16437;DHT22;8328;52.206;21.006;2022-12-18T17:38:10;-1.40;99.90
16437;DHT22;8328;52.206;21.006;2022-12-18T17:40:36;-1.40;99.90
16437;DHT22;8328;52.206;21.006;2022-12-18T17:43:02;-1.40;99.90
16437;DHT22;8328;52.206;21.006;2022-12-18T17:45:28;-1.50;99.90
16437;DHT22;8328;52.206;21.006;2022-12-18T17:47:54;-1.40;99.90
16437;DHT22;8328;52.206;21.006;2022-12-18T17:50:20;-1.40;99.90
16437;DHT22;8328;52.206;21.006;2022-12-18T17:52:45;-1.40;99.90
16437;DHT22;8328;52.206;21.006;2022-12-18T17:55:11;-1.40;99.90
16437;DHT22;8328;52.206;21.006;2022-12-18T17:57:37;-1.30;99.90
16437;DHT22;8328;52.206;21.006;2022-12-18T18:00:04;-1.30;99.90
16437;DHT22;8328;52.206;21.006;2022-12-18T18:02:30;-1.30;99.90
16437;DHT22;8328;52.206;21.006;2022-12-18T18:04:56;-1.20;99.90
16437;DHT22;8328;52.206;21.006;2022-12-18T18:07:22;-1.40;99.90
16437;DHT22;8328;52.206;21.006;2022-12-18T18:09:48;-1.30;99.90
16437;DHT22;8328;52.206;21.006;2022-12-18T18:12:14;-1.50;99.90
16437;DHT22;8328;52.206;21.006;2022-12-18T18:14:58;-1.60;99.90
16437;DHT22;8328;52.206;21.006;2022-12-18T18:17:24;-1.60;99.90
16437;DHT22;8328;52.206;21.006;2022-12-18T18:19:53;-1.60;99.90
16437;DHT22;8328;52.206;21.006;2022-12-18T18:22:19;-1.60;99.90
16437;DHT22;8328;52.206;21.006;2022-12-18T18:24:45;-1.70;99.90
16437;DHT22;8328;52.206;21.006;2022-12-18T18:27:11;-1.60;99.90
16437;DHT22;8328;52.206;21.006;2022-12-18T18:29:37;-1.60;99.90
16437;DHT22;8328;52.206;21.006;2022-12-18T18:32:03;-1.60;99.90
16437;DHT22;8328;52.206;21.006;2022-12-18T18:34:30;-1.80;99.90
16437;DHT22;8328;52.206;21.006;2022-12-18T18:36:56;-1.80;99.90
16437;DHT22;8328;52.206;21.006;2022-12-18T18:39:24;-1.90;99.90
16437;DHT22;8328;52.206;21.006;2022-12-18T18:41:54;-2.00;99.90
16437;DHT22;8328;52.206;21.006;2022-12-18T18:44:20;-2.00;99.90
16437;DHT22;8328;52.206;21.006;2022-12-18T18:46:46;-1.90;99.90
16437;DHT22;8328;52.206;21.006;2022-12-18T18:49:13;-1.90;99.90
16437;DHT22;8328;52.206;21.006;2022-12-18T18:51:39;-1.90;99.90
16437;DHT22;8328;52.206;21.006;2022-12-18T18:54:05;-1.90;99.90
16437;DHT22;8328;52.206;21.006;2022-12-18T18:56:32;-1.80;99.90
16437;DHT22;8328;52.206;21.006;2022-12-18T18:59:00;-1.80;99.90
16437;DHT22;8328;52.206;21.006;2022-12-18T19:01:26;-1.80;99.90
16437;DHT22;8328;52.206;21.006;2022-12-18T19:03:53;-1.90;99.90
16437;DHT22;8328;52.206;21.006;2022-12-18T19:06:24;-1.90;99.90
16437;DHT22;8328;52.206;21.006;2022-12-18T19:08:51;-1.90;99.90
16437;DHT22;8328;52.206;21.006;2022-12-18T19:11:18;-1.90;99.90
16437;DHT22;8328;52.206;21.006;2022-12-18T19:14:05;-1.90;99.90
16437;DHT22;8328;52.206;21.006;2022-12-18T19:16:31;-2.00;99.90
16437;DHT22;8328;52.206;21.006;2022-12-18T19:19:01;-2.10;99.90
16437;DHT22;8328;52.206;21.006;2022-12-18T19:21:27;-2.10;99.90
16437;DHT22;8328;52.206;21.006;2022-12-18T19:23:53;-2.20;99.90
16437;DHT22;8328;52.206;21.006;2022-12-18T19:26:19;-2.10;99.90
16437;DHT22;8328;52.206;21.006;2022-12-18T19:28:45;-2.20;99.90
16437;DHT22;8328;52.206;21.006;2022-12-18T19:31:13;-2.10;99.90
16437;DHT22;8328;52.206;21.006;2022-12-18T19:33:41;-2.10;99.90
16437;DHT22;8328;52.206;21.006;2022-12-18T19:36:21;-2.10;99.90
16437;DHT22;8328;52.206;21.006;2022-12-18T19:38:49;-2.10;99.90
16437;DHT22;8328;52.206;21.006;2022-12-18T19:41:18;-2.10;99.90
16437;DHT22;8328;52.206;21.006;2022-12-18T19:43:45;-2.40;99.90
16437;DHT22;8328;52.206;21.006;2022-12-18T19:46:13;-2.10;99.90
16437;DHT22;8328;52.206;21.006;2022-12-18T19:48:39;-2.10;99.90
16437;DHT22;8328;52.206;21.006;2022-12-18T19:51:13;-2.20;99.90
16437;DHT22;8328;52.206;21.006;2022-12-18T19:53:39;-2.30;99.90
16437;DHT22;8328;52.206;21.006;2022-12-18T19:56:09;-2.30;99.90
16437;DHT22;8328;52.206;21.006;2022-12-18T19:58:35;-2.30;99.90
16437;DHT22;8328;52.206;21.006;2022-12-18T20:01:02;-2.40;99.90
16437;DHT22;8328;52.206;21.006;2022-12-18T20:03:28;-2.40;99.90
16437;DHT22;8328;52.206;21.006;2022-12-18T20:05:55;-2.40;99.90
16437;DHT22;8328;52.206;21.006;2022-12-18T20:08:21;-3.10;99.90
16437;DHT22;8328;52.206;21.006;2022-12-18T20:10:47;-2.40;99.90
16437;DHT22;8328;52.206;21.006;2022-12-18T20:13:16;-2.40;99.90
16437;DHT22;8328;52.206;21.006;2022-12-18T20:15:42;-2.50;99.90
16437;DHT22;8328;52.206;21.006;2022-12-18T20:18:11;-2.40;99.90
16437;DHT22;8328;52.206;21.006;2022-12-18T20:20:37;-2.40;99.90
16437;DHT22;8328;52.206;21.006;2022-12-18T20:23:03;-2.40;99.90
16437;DHT22;8328;52.206;21.006;2022-12-18T20:25:29;-2.40;99.90
16437;DHT22;8328;52.206;21.006;2022-12-18T20:27:55;-2.40;99.90
16437;DHT22;8328;52.206;21.006;2022-12-18T20:30:21;-2.40;99.90
16437;DHT22;8328;52.206;21.006;2022-12-18T20:32:46;-2.40;99.90
16437;DHT22;8328;52.206;21.006;2022-12-18T20:35:12;-2.40;99.90
16437;DHT22;8328;52.206;21.006;2022-12-18T20:37:38;-2.40;99.90
16437;DHT22;8328;52.206;21.006;2022-12-18T20:40:05;-2.40;99.90
16437;DHT22;8328;52.206;21.006;2022-12-18T20:42:31;-2.30;99.90